Ransom, Illinois
Current Conditions -  °F | °C
As of 6:55 AM on Friday 24 Oct 2014 (Local Time) from KPNT Reporting Station
Haze Haze  
Wind Chill: 43°   Ceiling: 700
Heat Index: 43°   Visibility: 1mi
Dew Point: 43°   Wind: 0mph
Humidity: 100%   Direction: NA
Pressure: 30.08"   Gusts: NA
Location:  41.16°N, 88.65°W
Report Text: KPNT 241155Z AUTO 00000KT 1SM BR VV007 06/06 A3008 RMK AO2 70010 T00620062 10115 20054
Loading
Personal Weather Stations






























Interactive Weather Map
Tropical Storm Tracking
New forecast layout! Learn more

10-Day Weather Forecast

Advertisements
Track Severe Weather on mobile